sensor_id;sensor_type;location;lat;lon;timestamp;pressure;altitude;pressure_sealevel;temperature;humidity
40075;BME280;26529;51.530;11.754;2023-01-25T00:02:11;102117.31;;;19.25;46.03
40075;BME280;26529;51.530;11.754;2023-01-25T00:04:37;102118.19;;;19.26;46.32
40075;BME280;26529;51.530;11.754;2023-01-25T00:07:02;102114.66;;;19.25;45.90
40075;BME280;26529;51.530;11.754;2023-01-25T00:09:28;102114.72;;;19.24;46.06
40075;BME280;26529;51.530;11.754;2023-01-25T00:11:53;102115.72;;;19.21;46.05
40075;BME280;26529;51.530;11.754;2023-01-25T00:14:22;102110.38;;;19.21;45.93
40075;BME280;26529;51.530;11.754;2023-01-25T00:16:48;102103.31;;;19.20;45.77
40075;BME280;26529;51.530;11.754;2023-01-25T00:19:13;102104.19;;;19.21;45.99
40075;BME280;26529;51.530;11.754;2023-01-25T00:21:39;102103.38;;;19.19;46.03
40075;BME280;26529;51.530;11.754;2023-01-25T00:24:05;102099.84;;;19.18;46.08
40075;BME280;26529;51.530;11.754;2023-01-25T00:26:34;102104.34;;;19.16;46.10
40075;BME280;26529;51.530;11.754;2023-01-25T00:29:00;102094.66;;;19.15;45.88
40075;BME280;26529;51.530;11.754;2023-01-25T00:36:45;102082.38;;;19.11;46.14
40075;BME280;26529;51.530;11.754;2023-01-25T00:39:12;102080.63;;;19.10;46.06
40075;BME280;26529;51.530;11.754;2023-01-25T00:41:38;102082.41;;;19.09;46.09
40075;BME280;26529;51.530;11.754;2023-01-25T00:44:03;102082.50;;;19.08;46.04
40075;BME280;26529;51.530;11.754;2023-01-25T00:46:29;102091.28;;;19.10;45.96
40075;BME280;26529;51.530;11.754;2023-01-25T00:48:54;102093.13;;;19.08;45.97
40075;BME280;26529;51.530;11.754;2023-01-25T00:51:21;102086.03;;;19.07;46.00
40075;BME280;26529;51.530;11.754;2023-01-25T00:53:46;102087.91;;;19.05;46.18
40075;BME280;26529;51.530;11.754;2023-01-25T00:56:12;102085.28;;;19.03;46.14
40075;BME280;26529;51.530;11.754;2023-01-25T00:58:39;102089.75;;;19.03;45.90
40075;BME280;26529;51.530;11.754;2023-01-25T01:01:08;102084.44;;;19.03;45.97
40075;BME280;26529;51.530;11.754;2023-01-25T01:03:34;102095.13;;;18.99;46.05
40075;BME280;26529;51.530;11.754;2023-01-25T01:06:01;102097.72;;;19.01;46.10
40075;BME280;26529;51.530;11.754;2023-01-25T01:08:27;102086.28;;;18.99;46.10
40075;BME280;26529;51.530;11.754;2023-01-25T01:10:58;102092.41;;;19.01;45.94
40075;BME280;26529;51.530;11.754;2023-01-25T01:13:24;102088.06;;;18.98;45.95
40075;BME280;26529;51.530;11.754;2023-01-25T01:15:49;102085.47;;;18.97;46.10
40075;BME280;26529;51.530;11.754;2023-01-25T01:18:16;102096.16;;;18.95;46.06
40075;BME280;26529;51.530;11.754;2023-01-25T01:20:49;102094.44;;;18.94;46.01
40075;BME280;26529;51.530;11.754;2023-01-25T01:23:14;102097.09;;;18.94;46.00
40075;BME280;26529;51.530;11.754;2023-01-25T01:25:40;102093.50;;;18.95;46.16
40075;BME280;26529;51.530;11.754;2023-01-25T01:28:07;102085.66;;;18.91;46.13
40075;BME280;26529;51.530;11.754;2023-01-25T01:30:32;102090.13;;;18.90;46.20
40075;BME280;26529;51.530;11.754;2023-01-25T01:32:58;102088.31;;;18.91;46.14
40075;BME280;26529;51.530;11.754;2023-01-25T01:35:23;102095.44;;;18.90;46.06
40075;BME280;26529;51.530;11.754;2023-01-25T01:37:49;102094.63;;;18.88;46.09
40075;BME280;26529;51.530;11.754;2023-01-25T01:40:15;102081.34;;;18.88;45.91
40075;BME280;26529;51.530;11.754;2023-01-25T01:43:02;102079.59;;;18.87;46.16
40075;BME280;26529;51.530;11.754;2023-01-25T01:45:53;102079.59;;;18.87;46.17
40075;BME280;26529;51.530;11.754;2023-01-25T01:48:44;102072.53;;;18.86;45.99
40075;BME280;26529;51.530;11.754;2023-01-25T01:51:39;102071.72;;;18.84;45.94
40075;BME280;26529;51.530;11.754;2023-01-25T01:54:25;102064.69;;;18.83;46.06
40075;BME280;26529;51.530;11.754;2023-01-25T01:57:06;102052.25;;;18.83;46.13
40075;BME280;26529;51.530;11.754;2023-01-25T01:59:41;102051.38;;;18.83;45.90
40075;BME280;26529;51.530;11.754;2023-01-25T02:02:08;102039.06;;;18.80;46.16
40075;BME280;26529;51.530;11.754;2023-01-25T02:04:34;102037.22;;;18.82;46.00
40075;BME280;26529;51.530;11.754;2023-01-25T02:07:08;102042.63;;;18.81;46.06
40075;BME280;26529;51.530;11.754;2023-01-25T02:09:37;102044.44;;;18.79;46.14
40075;BME280;26529;51.530;11.754;2023-01-25T02:12:04;102033.81;;;18.79;46.02
40075;BME280;26529;51.530;11.754;2023-01-25T02:14:32;102037.50;;;18.75;46.26
40075;BME280;26529;51.530;11.754;2023-01-25T02:16:58;102029.44;;;18.76;46.19
40075;BME280;26529;51.530;11.754;2023-01-25T02:22:53;102022.38;;;18.77;46.31
40075;BME280;26529;51.530;11.754;2023-01-25T02:25:21;102012.66;;;18.76;46.10
40075;BME280;26529;51.530;11.754;2023-01-25T02:27:56;102007.34;;;18.76;46.05
40075;BME280;26529;51.530;11.754;2023-01-25T02:30:25;102002.97;;;18.75;46.09
40075;BME280;26529;51.530;11.754;2023-01-25T02:32:50;101998.53;;;18.74;46.02
40075;BME280;26529;51.530;11.754;2023-01-25T02:35:18;102003.84;;;18.74;46.10
40075;BME280;26529;51.530;11.754;2023-01-25T02:37:44;102000.38;;;18.71;46.28
40075;BME280;26529;51.530;11.754;2023-01-25T02:40:10;102000.38;;;18.71;46.11
40075;BME280;26529;51.530;11.754;2023-01-25T02:42:36;101996.00;;;18.70;46.09
40075;BME280;26529;51.530;11.754;2023-01-25T02:45:04;101984.56;;;18.68;46.20
40075;BME280;26529;51.530;11.754;2023-01-25T02:47:30;101985.50;;;18.67;46.26
40075;BME280;26529;51.530;11.754;2023-01-25T02:49:56;101979.25;;;18.68;46.14
40075;BME280;26529;51.530;11.754;2023-01-25T02:52:21;101981.97;;;18.67;46.19
40075;BME280;26529;51.530;11.754;2023-01-25T02:54:47;101983.72;;;18.66;46.18
40075;BME280;26529;51.530;11.754;2023-01-25T02:57:12;101980.22;;;18.66;46.23
40075;BME280;26529;51.530;11.754;2023-01-25T02:59:41;101979.34;;;18.65;46.01
40075;BME280;26529;51.530;11.754;2023-01-25T03:02:07;101974.91;;;18.66;46.33
40075;BME280;26529;51.530;11.754;2023-01-25T03:04:33;101988.25;;;18.64;46.17
40075;BME280;26529;51.530;11.754;2023-01-25T03:06:58;101982.88;;;18.66;46.18
40075;BME280;26529;51.530;11.754;2023-01-25T03:09:25;101972.28;;;18.64;46.23
40075;BME280;26529;51.530;11.754;2023-01-25T03:11:51;101983.84;;;18.63;46.30
40075;BME280;26529;51.530;11.754;2023-01-25T03:14:19;101977.72;;;18.61;46.30
40075;BME280;26529;51.530;11.754;2023-01-25T03:16:45;101986.50;;;18.63;46.05
40075;BME280;26529;51.530;11.754;2023-01-25T03:19:11;101983.03;;;18.61;46.18
40075;BME280;26529;51.530;11.754;2023-01-25T03:21:39;101975.97;;;18.60;46.12
40075;BME280;26529;51.530;11.754;2023-01-25T03:24:05;101976.84;;;18.61;46.13
40075;BME280;26529;51.530;11.754;2023-01-25T03:26:37;101968.91;;;18.59;46.24
40075;BME280;26529;51.530;11.754;2023-01-25T03:29:30;101968.91;;;18.59;46.25
40075;BME280;26529;51.530;11.754;2023-01-25T03:31:56;101974.34;;;18.56;46.37
40075;BME280;26529;51.530;11.754;2023-01-25T03:34:22;101963.72;;;18.56;46.17
40075;BME280;26529;51.530;11.754;2023-01-25T03:36:47;101962.84;;;18.55;46.08
40075;BME280;26529;51.530;11.754;2023-01-25T03:39:13;101955.75;;;18.56;46.47
40075;BME280;26529;51.530;11.754;2023-01-25T03:41:42;101947.78;;;18.56;46.27
40075;BME280;26529;51.530;11.754;2023-01-25T03:44:10;101953.16;;;18.54;46.41
40075;BME280;26529;51.530;11.754;2023-01-25T03:46:39;101957.56;;;18.54;46.27
40075;BME280;26529;51.530;11.754;2023-01-25T03:49:05;101946.94;;;18.54;46.24
40075;BME280;26529;51.530;11.754;2023-01-25T03:51:31;101951.47;;;18.52;46.33
40075;BME280;26529;51.530;11.754;2023-01-25T03:53:56;101951.47;;;18.52;46.31
40075;BME280;26529;51.530;11.754;2023-01-25T03:56:22;101943.50;;;18.52;46.20
40075;BME280;26529;51.530;11.754;2023-01-25T03:59:02;101938.19;;;18.52;46.30
40075;BME280;26529;51.530;11.754;2023-01-25T04:01:28;101943.50;;;18.52;46.22
40075;BME280;26529;51.530;11.754;2023-01-25T04:03:54;101940.97;;;18.49;46.21
40075;BME280;26529;51.530;11.754;2023-01-25T04:06:19;101939.16;;;18.49;46.19
40075;BME280;26529;51.530;11.754;2023-01-25T04:08:45;101935.63;;;18.49;46.35
40075;BME280;26529;51.530;11.754;2023-01-25T04:11:10;101932.16;;;18.47;46.03
40075;BME280;26529;51.530;11.754;2023-01-25T04:13:37;101933.91;;;18.48;46.35
40075;BME280;26529;51.530;11.754;2023-01-25T04:16:07;101940.97;;;18.49;46.23
40075;BME280;26529;51.530;11.754;2023-01-25T04:18:52;101933.06;;;18.46;46.22
40075;BME280;26529;51.530;11.754;2023-01-25T04:21:18;101928.69;;;18.44;46.35
40075;BME280;26529;51.530;11.754;2023-01-25T04:23:43;101928.69;;;18.44;46.20
40075;BME280;26529;51.530;11.754;2023-01-25T04:26:10;101928.69;;;18.44;46.29
40075;BME280;26529;51.530;11.754;2023-01-25T04:28:37;101921.66;;;18.43;46.41
40075;BME280;26529;51.530;11.754;2023-01-25T04:31:04;101925.22;;;18.42;46.36
40075;BME280;26529;51.530;11.754;2023-01-25T04:33:34;101925.22;;;18.42;46.36
40075;BME280;26529;51.530;11.754;2023-01-25T04:36:00;101925.22;;;18.42;46.40
40075;BME280;26529;51.530;11.754;2023-01-25T04:38:25;101917.25;;;18.42;46.29
40075;BME280;26529;51.530;11.754;2023-01-25T04:40:52;101913.72;;;18.42;46.18
40075;BME280;26529;51.530;11.754;2023-01-25T04:43:19;101920.84;;;18.41;46.36
40075;BME280;26529;51.530;11.754;2023-01-25T04:45:45;101915.56;;;18.40;46.39
40075;BME280;26529;51.530;11.754;2023-01-25T04:48:21;101919.97;;;18.41;46.28
40075;BME280;26529;51.530;11.754;2023-01-25T04:50:54;101922.63;;;18.41;46.22
40075;BME280;26529;51.530;11.754;2023-01-25T04:53:21;101905.91;;;18.37;46.37
40075;BME280;26529;51.530;11.754;2023-01-25T04:55:47;101913.75;;;18.40;46.24
40075;BME280;26529;51.530;11.754;2023-01-25T04:58:13;101914.69;;;18.39;46.32
40075;BME280;26529;51.530;11.754;2023-01-25T05:00:40;101912.97;;;18.38;46.41
40075;BME280;26529;51.530;11.754;2023-01-25T05:03:09;101909.50;;;18.36;46.26
40075;BME280;26529;51.530;11.754;2023-01-25T05:05:35;101905.91;;;18.37;46.39
40075;BME280;26529;51.530;11.754;2023-01-25T05:08:05;101905.00;;;18.38;46.27
40075;BME280;26529;51.530;11.754;2023-01-25T05:10:31;101899.72;;;18.37;46.28
40075;BME280;26529;51.530;11.754;2023-01-25T05:13:26;101895.41;;;18.34;46.49
40075;BME280;26529;51.530;11.754;2023-01-25T05:16:04;101902.47;;;18.35;46.25
40075;BME280;26529;51.530;11.754;2023-01-25T05:18:30;101897.22;;;18.32;46.37
40075;BME280;26529;51.530;11.754;2023-01-25T05:20:56;101898.13;;;18.33;46.22
40075;BME280;26529;51.530;11.754;2023-01-25T05:23:23;101894.53;;;18.34;46.21
40075;BME280;26529;51.530;11.754;2023-01-25T05:25:49;101900.72;;;18.34;46.42
40075;BME280;26529;51.530;11.754;2023-01-25T05:28:33;101897.22;;;18.32;46.28
40075;BME280;26529;51.530;11.754;2023-01-25T05:31:11;101894.59;;;18.32;46.31
40075;BME280;26529;51.530;11.754;2023-01-25T05:33:37;101900.78;;;18.33;46.41
40075;BME280;26529;51.530;11.754;2023-01-25T05:36:03;101898.16;;;18.31;46.31
40075;BME280;26529;51.530;11.754;2023-01-25T05:38:33;101903.47;;;18.31;46.36
40075;BME280;26529;51.530;11.754;2023-01-25T05:40:58;101905.28;;;18.30;46.39
40075;BME280;26529;51.530;11.754;2023-01-25T05:43:24;101895.56;;;18.29;46.22
40075;BME280;26529;51.530;11.754;2023-01-25T05:45:53;101894.69;;;18.29;46.29
40075;BME280;26529;51.530;11.754;2023-01-25T05:48:19;101894.69;;;18.29;46.37
40075;BME280;26529;51.530;11.754;2023-01-25T05:50:45;101898.28;;;18.28;46.58
40075;BME280;26529;51.530;11.754;2023-01-25T05:53:17;101895.63;;;18.28;46.45
40075;BME280;26529;51.530;11.754;2023-01-25T05:55:44;101895.63;;;18.28;46.49
40075;BME280;26529;51.530;11.754;2023-01-25T05:58:13;101893.88;;;18.27;46.44
40075;BME280;26529;51.530;11.754;2023-01-25T06:00:40;101898.28;;;18.28;46.50
40075;BME280;26529;51.530;11.754;2023-01-25T06:03:06;101890.41;;;18.25;46.64
40075;BME280;26529;51.530;11.754;2023-01-25T06:05:34;101890.41;;;18.25;46.40
40075;BME280;26529;51.530;11.754;2023-01-25T06:08:00;101889.47;;;18.26;46.22
40075;BME280;26529;51.530;11.754;2023-01-25T06:10:33;101882.44;;;18.25;46.47
40075;BME280;26529;51.530;11.754;2023-01-25T06:12:58;101886.94;;;18.23;46.41
40075;BME280;26529;51.530;11.754;2023-01-25T06:15:25;101891.31;;;18.24;46.09
40075;BME280;26529;51.530;11.754;2023-01-25T06:17:54;101888.66;;;18.24;46.36
40075;BME280;26529;51.530;11.754;2023-01-25T06:20:31;101886.06;;;18.22;46.49
40075;BME280;26529;51.530;11.754;2023-01-25T06:23:05;101886.06;;;18.22;46.39
40075;BME280;26529;51.530;11.754;2023-01-25T06:25:31;101890.53;;;18.22;46.41
40075;BME280;26529;51.530;11.754;2023-01-25T06:27:56;101885.22;;;18.22;46.34
40075;BME280;26529;51.530;11.754;2023-01-25T06:30:22;101872.88;;;18.21;46.37
40075;BME280;26529;51.530;11.754;2023-01-25T06:32:47;101880.81;;;18.21;46.30
40075;BME280;26529;51.530;11.754;2023-01-25T06:35:14;101878.97;;;18.23;46.23
40075;BME280;26529;51.530;11.754;2023-01-25T06:37:40;101885.25;;;18.20;46.58
40075;BME280;26529;51.530;11.754;2023-01-25T06:40:06;101886.19;;;18.19;46.45
40075;BME280;26529;51.530;11.754;2023-01-25T06:42:32;101880.06;;;18.17;46.46
40075;BME280;26529;51.530;11.754;2023-01-25T06:44:57;101880.91;;;18.17;46.28
40075;BME280;26529;51.530;11.754;2023-01-25T06:47:23;101885.28;;;18.19;46.48
40075;BME280;26529;51.530;11.754;2023-01-25T06:49:48;101880.09;;;18.15;46.55
40075;BME280;26529;51.530;11.754;2023-01-25T06:52:14;101883.63;;;18.16;46.48
40075;BME280;26529;51.530;11.754;2023-01-25T06:54:39;101881.84;;;18.16;46.29
40075;BME280;26529;51.530;11.754;2023-01-25T06:57:05;101878.25;;;18.17;46.43
40075;BME280;26529;51.530;11.754;2023-01-25T06:59:30;101876.53;;;18.16;46.34
40075;BME280;26529;51.530;11.754;2023-01-25T07:01:56;101883.63;;;18.16;46.44
40075;BME280;26529;51.530;11.754;2023-01-25T07:04:21;101881.91;;;18.13;46.39
40075;BME280;26529;51.530;11.754;2023-01-25T07:06:47;101875.72;;;18.14;46.38
40075;BME280;26529;51.530;11.754;2023-01-25T07:09:14;101872.22;;;18.12;46.61
40075;BME280;26529;51.530;11.754;2023-01-25T07:11:40;101873.91;;;18.15;46.39
40075;BME280;26529;51.530;11.754;2023-01-25T07:14:05;101866.00;;;18.13;46.42
40075;BME280;26529;51.530;11.754;2023-01-25T07:16:31;101859.84;;;18.13;46.55
40075;BME280;26529;51.530;11.754;2023-01-25T07:19:11;101862.50;;;18.13;46.43
40075;BME280;26529;51.530;11.754;2023-01-25T07:21:39;101853.66;;;18.12;46.52
40075;BME280;26529;51.530;11.754;2023-01-25T07:24:05;101851.91;;;18.11;46.24
40075;BME280;26529;51.530;11.754;2023-01-25T07:26:31;101858.09;;;18.12;46.33
40075;BME280;26529;51.530;11.754;2023-01-25T07:28:57;101859.84;;;18.13;46.56
40075;BME280;26529;51.530;11.754;2023-01-25T07:31:23;101856.31;;;18.12;46.43
40075;BME280;26529;51.530;11.754;2023-01-25T07:33:53;101851.91;;;18.11;46.49
40075;BME280;26529;51.530;11.754;2023-01-25T07:36:19;101849.25;;;18.11;46.21
40075;BME280;26529;51.530;11.754;2023-01-25T07:38:45;101847.53;;;18.10;46.42
40075;BME280;26529;51.530;11.754;2023-01-25T07:41:10;101847.53;;;18.10;46.37
40075;BME280;26529;51.530;11.754;2023-01-25T07:43:37;101843.84;;;17.87;43.83
40075;BME280;26529;51.530;11.754;2023-01-25T07:46:08;101845.25;;;17.14;42.20
40075;BME280;26529;51.530;11.754;2023-01-25T07:48:38;101842.75;;;16.44;41.66
40075;BME280;26529;51.530;11.754;2023-01-25T07:51:05;101847.75;;;16.22;41.70
40075;BME280;26529;51.530;11.754;2023-01-25T07:56:16;101842.84;;;15.68;42.14
40075;BME280;26529;51.530;11.754;2023-01-25T07:58:44;101824.75;;;15.87;40.56
40075;BME280;26529;51.530;11.754;2023-01-25T08:01:14;101830.69;;;15.61;41.14
40075;BME280;26529;51.530;11.754;2023-01-25T08:03:41;101835.19;;;15.95;40.98
40075;BME280;26529;51.530;11.754;2023-01-25T08:06:09;101829.91;;;16.93;41.66
40075;BME280;26529;51.530;11.754;2023-01-25T08:08:37;101817.34;;;17.30;41.39
40075;BME280;26529;51.530;11.754;2023-01-25T08:13:34;101813.03;;;17.55;42.07
40075;BME280;26529;51.530;11.754;2023-01-25T08:15:59;101813.78;;;17.60;42.33
40075;BME280;26529;51.530;11.754;2023-01-25T08:18:25;101815.34;;;17.66;42.73
40075;BME280;26529;51.530;11.754;2023-01-25T08:20:50;101812.63;;;17.69;42.98
40075;BME280;26529;51.530;11.754;2023-01-25T08:23:16;101812.50;;;17.72;43.25
40075;BME280;26529;51.530;11.754;2023-01-25T08:25:41;101807.09;;;17.75;43.49
40075;BME280;26529;51.530;11.754;2023-01-25T08:28:07;101806.13;;;17.77;43.58
40075;BME280;26529;51.530;11.754;2023-01-25T08:30:33;101805.19;;;17.80;43.85
40075;BME280;26529;51.530;11.754;2023-01-25T08:32:58;101805.09;;;17.82;43.91
40075;BME280;26529;51.530;11.754;2023-01-25T08:35:24;101803.22;;;17.85;44.02
40075;BME280;26529;51.530;11.754;2023-01-25T08:37:49;101797.91;;;17.85;44.04
40075;BME280;26529;51.530;11.754;2023-01-25T08:40:15;101804.03;;;17.87;44.22
40075;BME280;26529;51.530;11.754;2023-01-25T08:42:41;101802.25;;;17.88;44.40
40075;BME280;26529;51.530;11.754;2023-01-25T08:45:09;101797.81;;;17.88;44.40
40075;BME280;26529;51.530;11.754;2023-01-25T08:47:35;101792.72;;;17.82;44.69
40075;BME280;26529;51.530;11.754;2023-01-25T08:50:01;101802.66;;;17.75;45.07
40075;BME280;26529;51.530;11.754;2023-01-25T08:52:26;101787.78;;;17.71;44.97
40075;BME280;26529;51.530;11.754;2023-01-25T08:54:52;101790.63;;;17.65;45.46
40075;BME280;26529;51.530;11.754;2023-01-25T08:57:17;101786.25;;;17.64;45.46
40075;BME280;26529;51.530;11.754;2023-01-25T08:59:43;101790.66;;;17.63;45.23
40075;BME280;26529;51.530;11.754;2023-01-25T09:02:10;101788.97;;;17.61;45.25
40075;BME280;26529;51.530;11.754;2023-01-25T09:04:36;101780.19;;;17.60;45.46
40075;BME280;26529;51.530;11.754;2023-01-25T09:07:01;101781.06;;;17.59;45.27
40075;BME280;26529;51.530;11.754;2023-01-25T09:09:27;101784.59;;;17.60;45.39
40075;BME280;26529;51.530;11.754;2023-01-25T09:11:54;101776.59;;;17.61;45.29
40075;BME280;26529;51.530;11.754;2023-01-25T09:14:20;101776.63;;;17.60;45.33
40075;BME280;26529;51.530;11.754;2023-01-25T09:16:45;101779.25;;;17.61;45.43
40075;BME280;26529;51.530;11.754;2023-01-25T09:19:11;101780.09;;;17.62;45.31
40075;BME280;26529;51.530;11.754;2023-01-25T09:21:36;101772.22;;;17.60;45.35
40075;BME280;26529;51.530;11.754;2023-01-25T09:24:03;101772.25;;;17.59;45.43
40075;BME280;26529;51.530;11.754;2023-01-25T09:26:29;101773.94;;;17.61;45.46
40075;BME280;26529;51.530;11.754;2023-01-25T09:28:54;101778.41;;;17.59;45.44
40075;BME280;26529;51.530;11.754;2023-01-25T09:31:20;101772.22;;;17.60;45.43
40075;BME280;26529;51.530;11.754;2023-01-25T09:34:05;101772.22;;;17.60;45.48
40075;BME280;26529;51.530;11.754;2023-01-25T09:36:30;101767.75;;;17.61;45.42
40075;BME280;26529;51.530;11.754;2023-01-25T09:38:56;101765.06;;;17.62;45.52
40075;BME280;26529;51.530;11.754;2023-01-25T09:46:58;101758.03;;;17.61;45.57
40075;BME280;26529;51.530;11.754;2023-01-25T09:49:35;101764.19;;;17.62;45.43
40075;BME280;26529;51.530;11.754;2023-01-25T09:54:52;101752.72;;;17.61;45.52
40075;BME280;26529;51.530;11.754;2023-01-25T09:57:29;101751.00;;;17.60;45.45
40075;BME280;26529;51.530;11.754;2023-01-25T09:59:59;101751.00;;;17.60;45.57
40075;BME280;26529;51.530;11.754;2023-01-25T10:04:57;101748.28;;;17.62;45.64
40075;BME280;26529;51.530;11.754;2023-01-25T10:07:30;101750.88;;;17.63;45.53
40075;BME280;26529;51.530;11.754;2023-01-25T10:10:09;101746.47;;;17.64;45.49
40075;BME280;26529;51.530;11.754;2023-01-25T10:12:36;101741.22;;;17.61;45.63
40075;BME280;26529;51.530;11.754;2023-01-25T10:17:42;101736.81;;;17.61;45.66
40075;BME280;26529;51.530;11.754;2023-01-25T10:23:19;101729.66;;;17.63;45.75
40075;BME280;26529;51.530;11.754;2023-01-25T10:25:57;101730.53;;;17.64;45.75
40075;BME280;26529;51.530;11.754;2023-01-25T10:31:23;101726.19;;;17.61;45.72
40075;BME280;26529;51.530;11.754;2023-01-25T10:33:54;101718.25;;;17.61;45.75
40075;BME280;26529;51.530;11.754;2023-01-25T10:36:24;101710.28;;;17.61;45.50
40075;BME280;26529;51.530;11.754;2023-01-25T10:38:51;101699.69;;;17.61;45.84
40075;BME280;26529;51.530;11.754;2023-01-25T10:41:29;101696.16;;;17.61;45.51
40075;BME280;26529;51.530;11.754;2023-01-25T10:43:58;101693.44;;;17.62;45.71
40075;BME280;26529;51.530;11.754;2023-01-25T10:47:11;101694.38;;;17.61;45.70
40075;BME280;26529;51.530;11.754;2023-01-25T10:49:50;101678.38;;;17.63;45.76
40075;BME280;26529;51.530;11.754;2023-01-25T10:52:17;101670.50;;;17.61;45.72
40075;BME280;26529;51.530;11.754;2023-01-25T10:54:43;101668.78;;;17.60;45.82
40075;BME280;26529;51.530;11.754;2023-01-25T10:57:13;101666.13;;;17.60;45.64
40075;BME280;26529;51.530;11.754;2023-01-25T10:59:44;101666.03;;;17.62;45.72
40075;BME280;26529;51.530;11.754;2023-01-25T11:02:44;101664.28;;;17.62;45.62
40075;BME280;26529;51.530;11.754;2023-01-25T11:05:35;101658.16;;;17.60;45.59
40075;BME280;26529;51.530;11.754;2023-01-25T11:10:55;101650.22;;;17.60;45.72
40075;BME280;26529;51.530;11.754;2023-01-25T11:13:30;101651.94;;;17.61;45.75
40075;BME280;26529;51.530;11.754;2023-01-25T11:18:32;101642.25;;;17.60;45.77
40075;BME280;26529;51.530;11.754;2023-01-25T11:21:15;101637.84;;;17.59;45.88
40075;BME280;26529;51.530;11.754;2023-01-25T11:23:43;101637.84;;;17.59;45.76
40075;BME280;26529;51.530;11.754;2023-01-25T11:26:22;101632.50;;;17.61;45.72
40075;BME280;26529;51.530;11.754;2023-01-25T11:28:48;101625.41;;;17.61;45.95
40075;BME280;26529;51.530;11.754;2023-01-25T11:31:24;101629.00;;;17.60;45.78
40075;BME280;26529;51.530;11.754;2023-01-25T11:33:50;101614.91;;;17.58;45.72
40075;BME280;26529;51.530;11.754;2023-01-25T11:37:00;101619.28;;;17.59;45.83
40075;BME280;26529;51.530;11.754;2023-01-25T11:39:48;101614.84;;;17.60;45.75
40075;BME280;26529;51.530;11.754;2023-01-25T11:56:49;101574.25;;;17.58;45.77
40075;BME280;26529;51.530;11.754;2023-01-25T12:08:03;101579.50;;;17.59;45.71
40075;BME280;26529;51.530;11.754;2023-01-25T12:19:50;101537.19;;;17.56;45.95
40075;BME280;26529;51.530;11.754;2023-01-25T12:22:00;101532.75;;;17.57;45.79
40075;BME280;26529;51.530;11.754;2023-01-25T12:24:58;101531.88;;;17.56;46.04
40075;BME280;26529;51.530;11.754;2023-01-25T12:27:49;101523.94;;;17.56;45.69
40075;BME280;26529;51.530;11.754;2023-01-25T12:30:27;101520.41;;;17.56;45.79
40075;BME280;26529;51.530;11.754;2023-01-25T12:33:06;101513.13;;;17.61;45.84
40075;BME280;26529;51.530;11.754;2023-01-25T12:35:41;101507.56;;;17.69;45.72
40075;BME280;26529;51.530;11.754;2023-01-25T12:38:18;101495.66;;;17.79;45.47
40075;BME280;26529;51.530;11.754;2023-01-25T12:40:54;101500.63;;;17.88;45.20
40075;BME280;26529;51.530;11.754;2023-01-25T12:43:45;101495.09;;;17.95;45.00
40075;BME280;26529;51.530;11.754;2023-01-25T12:46:42;101498.41;;;18.00;45.03
40075;BME280;26529;51.530;11.754;2023-01-25T12:49:37;101488.50;;;18.05;45.06
40075;BME280;26529;51.530;11.754;2023-01-25T12:52:36;101484.03;;;18.07;45.24
40075;BME280;26529;51.530;11.754;2023-01-25T12:55:02;101483.88;;;18.10;45.10
40075;BME280;26529;51.530;11.754;2023-01-25T13:06:21;101469.06;;;18.27;45.06
40075;BME280;26529;51.530;11.754;2023-01-25T13:09:06;101466.78;;;18.40;44.70
40075;BME280;26529;51.530;11.754;2023-01-25T13:11:39;101461.16;;;18.48;44.43
40075;BME280;26529;51.530;11.754;2023-01-25T13:16:47;101442.84;;;18.62;44.54
40075;BME280;26529;51.530;11.754;2023-01-25T13:19:18;101435.72;;;18.63;44.47
40075;BME280;26529;51.530;11.754;2023-01-25T13:21:46;101432.06;;;18.65;44.48
40075;BME280;26529;51.530;11.754;2023-01-25T13:32:00;101426.28;;;18.76;44.51
40075;BME280;26529;51.530;11.754;2023-01-25T13:37:16;101410.16;;;18.81;44.29
40075;BME280;26529;51.530;11.754;2023-01-25T13:39:45;101400.97;;;18.88;44.07
40075;BME280;26529;51.530;11.754;2023-01-25T13:44:42;101387.59;;;18.90;44.06
40075;BME280;26529;51.530;11.754;2023-01-25T13:47:13;101385.81;;;18.90;44.19
40075;BME280;26529;51.530;11.754;2023-01-25T13:50:00;101380.50;;;18.90;44.36
40075;BME280;26529;51.530;11.754;2023-01-25T13:52:27;101378.78;;;18.89;44.18
40075;BME280;26529;51.530;11.754;2023-01-25T13:54:57;101380.50;;;18.90;44.35
40075;BME280;26529;51.530;11.754;2023-01-25T13:57:28;101384.88;;;18.91;44.29
40075;BME280;26529;51.530;11.754;2023-01-25T14:00:04;101377.69;;;18.93;44.23
40075;BME280;26529;51.530;11.754;2023-01-25T14:02:31;101368.72;;;18.96;44.10
40075;BME280;26529;51.530;11.754;2023-01-25T14:04:59;101368.59;;;18.99;43.86
40075;BME280;26529;51.530;11.754;2023-01-25T14:07:33;101361.28;;;19.04;43.95
40075;BME280;26529;51.530;11.754;2023-01-25T14:10:06;101369.94;;;19.09;44.04
40075;BME280;26529;51.530;11.754;2023-01-25T14:12:41;101359.06;;;19.14;43.82
40075;BME280;26529;51.530;11.754;2023-01-25T14:15:24;101354.47;;;19.18;43.75
40075;BME280;26529;51.530;11.754;2023-01-25T14:18:08;101359.72;;;19.19;43.81
40075;BME280;26529;51.530;11.754;2023-01-25T14:20:35;101358.78;;;19.20;43.93
40075;BME280;26529;51.530;11.754;2023-01-25T14:23:00;101352.03;;;19.13;43.91
40075;BME280;26529;51.530;11.754;2023-01-25T14:25:26;101345.72;;;19.16;44.14
40075;BME280;26529;51.530;11.754;2023-01-25T14:27:53;101342.72;;;19.23;43.87
40075;BME280;26529;51.530;11.754;2023-01-25T14:30:30;101336.22;;;19.29;43.78